createdAt,value
2023-03-23T15:58:23.508Z,99470.00
2023-03-23T16:00:55.171Z,99457.00
2023-03-23T16:03:27.076Z,99447.00
2023-03-23T16:05:56.889Z,99453.00
2023-03-23T16:08:24.784Z,99442.00
2023-03-23T16:10:54.036Z,99445.00
2023-03-23T16:13:22.322Z,99446.00
2023-03-23T16:15:50.910Z,99450.00
2023-03-23T16:18:21.250Z,99449.00
2023-03-23T16:20:50.946Z,99456.00
2023-03-23T16:23:18.903Z,99460.00
2023-03-23T16:25:46.283Z,99470.00
2023-03-23T16:28:14.831Z,99475.00
2023-03-23T16:30:43.755Z,99481.00
2023-03-23T16:33:11.237Z,99483.00
2023-03-23T16:35:38.899Z,99481.00
2023-03-23T16:38:08.202Z,99491.00
2023-03-23T16:40:37.628Z,99489.00
2023-03-23T16:43:09.028Z,99492.00
2023-03-23T16:45:38.336Z,99489.00
2023-03-23T16:48:07.185Z,99482.00
2023-03-23T16:50:35.572Z,99489.00
2023-03-23T16:53:03.556Z,99501.00
2023-03-23T16:55:31.180Z,99494.00
2023-03-23T16:58:15.392Z,99494.00
2023-03-23T17:00:48.163Z,99492.00
2023-03-23T17:03:16.136Z,99491.00
2023-03-23T17:05:59.172Z,99503.00
2023-03-23T17:08:26.556Z,99491.00
2023-03-23T17:10:54.230Z,99510.00
2023-03-23T17:13:22.589Z,99530.00
2023-03-23T17:15:54.221Z,99524.00
2023-03-23T17:18:23.374Z,99530.00
2023-03-23T17:20:53.475Z,99521.00
2023-03-23T17:23:22.762Z,99518.00
2023-03-23T17:25:55.848Z,99513.00
2023-03-23T17:28:25.665Z,99511.00
2023-03-23T17:30:56.561Z,99515.00
2023-03-23T17:33:24.647Z,99518.00
2023-03-23T17:35:54.283Z,99523.00
2023-03-23T17:38:21.998Z,99517.00
2023-03-23T17:40:57.535Z,99512.00
2023-03-23T17:43:33.035Z,99520.00
2023-03-23T17:46:00.601Z,99511.00
2023-03-23T17:48:28.277Z,99513.00
2023-03-23T17:50:58.775Z,99518.00
2023-03-23T17:53:33.177Z,99507.00
2023-03-23T17:56:02.007Z,99508.00
2023-03-23T17:58:30.837Z,99512.00
2023-03-23T18:00:59.110Z,99520.00
2023-03-23T18:06:15.231Z,99528.00
2023-03-23T18:08:46.929Z,99537.00
2023-03-23T18:11:15.240Z,99537.00
2023-03-23T18:13:46.832Z,99548.00
2023-03-23T18:16:14.384Z,99549.00
2023-03-23T18:18:44.230Z,99540.00
2023-03-23T18:21:15.806Z,99543.00
2023-03-23T18:23:58.437Z,99545.00
2023-03-23T18:26:34.935Z,99540.00
2023-03-23T18:29:11.586Z,99543.00
2023-03-23T18:31:44.233Z,99548.00
2023-03-23T18:34:13.991Z,99535.00
2023-03-23T18:36:44.115Z,99532.00
2023-03-23T18:39:12.614Z,99541.00
2023-03-23T18:41:43.587Z,99542.00
2023-03-23T18:44:14.075Z,99539.00
2023-03-23T18:46:43.424Z,99540.00
2023-03-23T18:49:14.639Z,99541.00
2023-03-23T18:51:56.547Z,99535.00
2023-03-23T18:54:27.458Z,99531.00
2023-03-23T19:00:00.387Z,99546.00
2023-03-23T19:02:31.735Z,99540.00
2023-03-23T19:05:05.489Z,99547.00
2023-03-23T19:07:47.031Z,99535.00
2023-03-23T19:10:18.060Z,99538.00
2023-03-23T19:12:48.356Z,99535.00
2023-03-23T19:15:19.166Z,99535.00
2023-03-23T19:17:47.507Z,99545.00
2023-03-23T19:20:26.961Z,99536.00
2023-03-23T19:23:03.376Z,99536.00
2023-03-23T19:25:32.140Z,99533.00
2023-03-23T19:28:49.925Z,99532.00
2023-03-23T19:30:52.592Z,99520.00
2023-03-23T19:33:20.539Z,99525.00
2023-03-23T19:35:59.932Z,99514.00
2023-03-23T19:38:36.349Z,99529.00
2023-03-23T19:41:05.639Z,99531.00
2023-03-23T19:43:33.800Z,99531.00
2023-03-23T19:46:02.107Z,99527.00
2023-03-23T19:48:30.479Z,99517.00
2023-03-23T19:50:58.023Z,99518.00
2023-03-23T19:53:26.763Z,99520.00
2023-03-23T19:55:54.212Z,99523.00
2023-03-23T19:58:21.545Z,99531.00
2023-03-23T20:00:49.172Z,99531.00
2023-03-23T20:03:17.657Z,99523.00
2023-03-23T20:05:45.760Z,99528.00
2023-03-23T20:08:14.866Z,99536.00
2023-03-23T20:10:43.120Z,99534.00
2023-03-23T20:13:11.559Z,99527.00
2023-03-23T20:15:38.908Z,99524.00
2023-03-23T20:18:06.687Z,99527.00
2023-03-23T20:20:35.492Z,99530.00
2023-03-23T20:23:03.747Z,99529.00
2023-03-23T20:25:31.464Z,99534.00
2023-03-23T20:27:59.031Z,99536.00
2023-03-23T20:30:26.555Z,99542.00
2023-03-23T20:32:57.450Z,99539.00
2023-03-23T20:35:25.036Z,99537.00
2023-03-23T20:37:53.194Z,99538.00
2023-03-23T20:40:21.126Z,99540.00
2023-03-23T20:42:49.141Z,99539.00
2023-03-23T20:45:17.775Z,99539.00
2023-03-23T20:47:45.750Z,99538.00
2023-03-23T20:50:14.620Z,99532.00
2023-03-23T20:52:42.167Z,99537.00
2023-03-23T20:55:11.029Z,99527.00
2023-03-23T20:57:39.662Z,99524.00
2023-03-23T21:00:08.878Z,99523.00
2023-03-23T21:02:36.268Z,99528.00
2023-03-23T21:05:04.516Z,99525.00
2023-03-23T21:07:32.021Z,99526.00
2023-03-23T21:09:59.653Z,99525.00
2023-03-23T21:12:28.151Z,99531.00
2023-03-23T21:14:55.623Z,99524.00
2023-03-23T21:17:23.508Z,99520.00
2023-03-23T21:19:51.196Z,99521.00
2023-03-23T21:22:18.769Z,99511.00
2023-03-23T21:24:46.248Z,99516.00
2023-03-23T21:27:13.675Z,99502.00
2023-03-23T21:29:41.646Z,99503.00
2023-03-23T21:32:09.247Z,99506.00
2023-03-23T21:34:37.553Z,99500.00
2023-03-23T21:37:11.762Z,99496.00
2023-03-23T21:39:39.348Z,99495.00
2023-03-23T21:42:08.493Z,99496.00
2023-03-23T21:44:36.469Z,99490.00
2023-03-23T21:47:06.234Z,99479.00
2023-03-23T21:49:35.345Z,99482.00
2023-03-23T21:52:09.214Z,99478.00
2023-03-23T21:54:40.825Z,99488.00
2023-03-23T21:57:08.585Z,99483.00
2023-03-23T21:59:36.057Z,99474.00
2023-03-23T22:02:04.287Z,99478.00
2023-03-23T22:04:31.754Z,99483.00
2023-03-23T22:06:59.190Z,99471.00
2023-03-23T22:09:27.420Z,99475.00
2023-03-23T22:11:55.020Z,99468.00
2023-03-23T22:14:22.488Z,99469.00
2023-03-23T22:16:54.121Z,99474.00
2023-03-23T22:19:22.352Z,99458.00
2023-03-23T22:21:49.889Z,99472.00
2023-03-23T22:24:18.132Z,99460.00
2023-03-23T22:26:46.332Z,99454.00
2023-03-23T22:29:16.332Z,99457.00
2023-03-23T22:31:44.774Z,99456.00
2023-03-23T22:34:13.897Z,99453.00
2023-03-23T22:36:42.707Z,99456.00
2023-03-23T22:39:10.515Z,99462.00
2023-03-23T22:41:41.108Z,99441.00
2023-03-23T22:44:12.757Z,99455.00
2023-03-23T22:46:40.537Z,99446.00
2023-03-23T22:49:08.071Z,99450.00
2023-03-23T22:51:36.241Z,99441.00
2023-03-23T22:54:04.902Z,99440.00
2023-03-23T22:56:32.551Z,99435.00
2023-03-23T22:58:59.989Z,99433.00
2023-03-23T23:01:27.934Z,99425.00
2023-03-23T23:04:02.601Z,99418.00
2023-03-23T23:06:30.473Z,99419.00
2023-03-23T23:09:35.568Z,99421.00
2023-03-23T23:12:03.643Z,99410.00
2023-03-23T23:14:37.009Z,99411.00
2023-03-23T23:17:04.560Z,99402.00
2023-03-23T23:19:32.199Z,99403.00
2023-03-23T23:22:09.285Z,99402.00
2023-03-23T23:24:45.495Z,99393.00
2023-03-23T23:27:13.871Z,99388.00
2023-03-23T23:29:41.362Z,99392.00
2023-03-23T23:32:08.966Z,99393.00
2023-03-23T23:34:37.097Z,99389.00
2023-03-23T23:37:05.077Z,99389.00
2023-03-23T23:39:37.402Z,99385.00
2023-03-23T23:42:05.809Z,99386.00
2023-03-23T23:44:33.515Z,99378.00
2023-03-23T23:47:01.713Z,99373.00
2023-03-23T23:49:29.204Z,99371.00
2023-03-23T23:51:57.623Z,99374.00
2023-03-23T23:54:29.474Z,99364.00
2023-03-23T23:56:57.523Z,99361.00
2023-03-23T23:59:26.443Z,99362.00
